createdAt,value
2018-04-15T09:04:03.548Z,11.70
2018-04-15T09:06:34.304Z,11.70
2018-04-15T09:09:06.870Z,11.70
2018-04-15T09:11:38.588Z,11.60
2018-04-15T09:14:10.387Z,11.60
2018-04-15T09:16:41.954Z,11.60
2018-04-15T09:19:12.927Z,11.70
2018-04-15T09:21:44.033Z,11.80
2018-04-15T09:24:15.521Z,11.90
2018-04-15T09:26:46.853Z,11.80
2018-04-15T09:29:18.117Z,11.90
2018-04-15T09:31:48.816Z,11.70
2018-04-15T09:34:20.662Z,11.70
2018-04-15T09:36:52.456Z,11.70
2018-04-15T09:39:23.283Z,11.60
2018-04-15T09:41:54.025Z,11.60
2018-04-15T09:44:25.243Z,11.60
2018-04-15T09:46:56.721Z,11.80
2018-04-15T09:49:27.431Z,11.80
2018-04-15T09:51:58.143Z,11.90
2018-04-15T09:54:29.146Z,12.10
2018-04-15T09:56:59.906Z,12.20
2018-04-15T09:59:31.073Z,12.20
2018-04-15T10:02:01.847Z,12.20
2018-04-15T10:04:33.337Z,12.00
2018-04-15T10:07:04.334Z,12.00
2018-04-15T10:09:35.226Z,12.00
2018-04-15T10:12:06.724Z,12.00
2018-04-15T10:14:37.571Z,12.10
2018-04-15T10:17:08.261Z,12.10
2018-04-15T10:19:40.611Z,12.10
2018-04-15T10:22:12.437Z,12.10
2018-04-15T10:24:43.656Z,12.10
2018-04-15T10:27:14.795Z,12.20
2018-04-15T10:29:45.524Z,12.20
2018-04-15T10:32:16.243Z,12.20
2018-04-15T10:34:47.274Z,12.40
2018-04-15T10:37:18.760Z,12.30
2018-04-15T10:39:49.595Z,12.20
2018-04-15T10:42:20.589Z,12.10
2018-04-15T10:44:52.361Z,12.10
2018-04-15T10:47:23.833Z,12.30
2018-04-15T10:49:54.595Z,12.30
2018-04-15T10:52:25.294Z,12.40
2018-04-15T10:54:56.504Z,12.40
2018-04-15T10:57:27.964Z,12.40
2018-04-15T10:59:58.719Z,12.40
2018-04-15T11:02:29.704Z,12.40
2018-04-15T11:05:00.590Z,12.30
2018-04-15T11:07:32.229Z,12.30
2018-04-15T11:10:02.995Z,12.50
2018-04-15T11:12:33.752Z,12.60
2018-04-15T11:15:04.958Z,12.50
2018-04-15T11:17:35.656Z,12.40
2018-04-15T11:20:06.428Z,12.50
2018-04-15T11:22:37.180Z,12.40
2018-04-15T11:25:08.256Z,12.40
2018-04-15T11:27:38.969Z,12.20
2018-04-15T11:30:10.295Z,12.20
2018-04-15T11:32:40.994Z,12.10
2018-04-15T11:35:12.615Z,12.20
2018-04-15T11:37:43.373Z,12.20
2018-04-15T11:40:15.165Z,12.60
2018-04-15T11:42:45.858Z,12.60
2018-04-15T11:45:19.587Z,12.70
2018-04-15T11:47:50.634Z,12.80
2018-04-15T11:50:22.200Z,12.80
2018-04-15T11:52:52.886Z,12.80
2018-04-15T11:55:24.815Z,12.80
2018-04-15T11:57:55.926Z,12.80
2018-04-15T12:00:26.801Z,12.70
2018-04-15T12:02:57.529Z,12.70
2018-04-15T12:05:28.400Z,12.80
2018-04-15T12:07:59.160Z,13.00
2018-04-15T12:10:30.151Z,13.20
2018-04-15T12:13:00.919Z,13.30
2018-04-15T12:15:31.996Z,13.30
2018-04-15T12:18:02.969Z,13.20
2018-04-15T12:20:33.825Z,13.10
2018-04-15T12:23:05.408Z,12.90
2018-04-15T12:25:36.175Z,12.90
2018-04-15T12:28:06.863Z,12.90
2018-04-15T12:30:38.159Z,12.90
2018-04-15T12:33:08.893Z,12.90
2018-04-15T12:35:39.687Z,12.80
2018-04-15T12:38:10.736Z,12.70
2018-04-15T12:40:41.591Z,12.60
2018-04-15T12:43:12.272Z,12.50
2018-04-15T12:45:44.055Z,12.50
2018-04-15T12:48:14.831Z,12.50
2018-04-15T12:50:46.120Z,12.50
2018-04-15T12:53:16.795Z,12.50
2018-04-15T12:55:47.643Z,12.40
2018-04-15T12:58:18.633Z,12.50
2018-04-15T13:00:49.339Z,12.50
2018-04-15T13:03:21.153Z,12.60
2018-04-15T13:05:52.337Z,12.60
2018-04-15T13:08:23.037Z,12.70
2018-04-15T13:10:53.739Z,12.70
2018-04-15T13:13:24.790Z,12.80
2018-04-15T13:15:55.598Z,13.00
2018-04-15T13:18:26.290Z,13.00
2018-04-15T13:20:56.995Z,13.00
2018-04-15T13:23:28.013Z,13.10
2018-04-15T13:25:59.199Z,13.20
2018-04-15T13:28:29.894Z,13.30
2018-04-15T13:31:00.905Z,13.20
2018-04-15T13:33:31.691Z,13.40
2018-04-15T13:36:02.441Z,13.40
2018-04-15T13:38:33.496Z,13.70
2018-04-15T13:41:04.204Z,13.80
2018-04-15T13:43:34.982Z,13.90
2018-04-15T13:46:07.020Z,14.30
2018-04-15T13:48:38.686Z,14.40
2018-04-15T13:51:10.322Z,14.50
2018-04-15T13:53:41.065Z,14.40
2018-04-15T13:56:11.934Z,14.60
2018-04-15T13:58:43.705Z,15.00
2018-04-15T14:01:14.336Z,15.00
2018-04-15T14:03:45.785Z,15.40
2018-04-15T14:06:17.631Z,15.80
2018-04-15T14:08:49.372Z,16.20
2018-04-15T14:11:21.003Z,16.80
2018-04-15T14:13:51.742Z,16.80
2018-04-15T14:16:23.144Z,17.20
2018-04-15T14:18:53.843Z,17.20
2018-04-15T14:21:25.796Z,17.60
2018-04-15T14:23:56.478Z,17.50
2018-04-15T14:26:27.135Z,17.40
2018-04-15T14:28:58.143Z,17.50
2018-04-15T14:31:28.979Z,17.50
2018-04-15T14:33:59.671Z,17.50
2018-04-15T14:36:31.167Z,17.60
2018-04-15T14:39:01.934Z,17.50
2018-04-15T14:41:32.971Z,17.60
2018-04-15T14:44:03.699Z,17.60
2018-04-15T14:46:34.749Z,17.50
2018-04-15T14:49:05.469Z,17.80
2018-04-15T14:51:36.222Z,17.70
2018-04-15T14:54:08.129Z,18.00
2018-04-15T14:56:39.099Z,17.90
2018-04-15T14:59:10.040Z,17.80
2018-04-15T15:01:40.860Z,17.80
2018-04-15T15:04:11.784Z,17.70
2018-04-15T15:06:42.653Z,17.60
2018-04-15T15:09:13.656Z,17.20
2018-04-15T15:11:44.275Z,17.10
2018-04-15T15:14:15.751Z,17.20
2018-04-15T15:16:46.471Z,17.10
2018-04-15T15:19:17.075Z,17.20
2018-04-15T15:21:47.933Z,17.00
2018-04-15T15:24:18.587Z,16.70
2018-04-15T15:26:49.637Z,16.70
2018-04-15T15:29:20.562Z,16.80
2018-04-15T15:31:51.350Z,16.70
2018-04-15T15:34:22.002Z,16.70
2018-04-15T15:36:52.723Z,16.60
2018-04-15T15:39:23.361Z,16.50
2018-04-15T15:41:55.176Z,15.80
2018-04-15T15:44:25.892Z,15.80
2018-04-15T15:46:56.525Z,15.80
2018-04-15T15:49:27.153Z,15.70
2018-04-15T15:51:57.946Z,15.70
2018-04-15T15:54:28.721Z,15.60
2018-04-15T15:56:59.923Z,15.70
2018-04-15T15:59:30.593Z,15.70
2018-04-15T16:02:01.541Z,15.80
2018-04-15T16:04:32.222Z,15.70
2018-04-15T16:07:03.214Z,15.80
2018-04-15T16:09:33.845Z,15.80
2018-04-15T16:12:04.480Z,15.60
2018-04-15T16:14:35.418Z,15.50
2018-04-15T16:17:06.243Z,15.60
2018-04-15T16:19:36.857Z,15.70
2018-04-15T16:22:07.618Z,15.60
2018-04-15T16:24:38.252Z,15.40
2018-04-15T16:27:08.915Z,15.30
2018-04-15T16:29:39.586Z,15.20
2018-04-15T16:32:10.200Z,15.30
2018-04-15T16:34:41.132Z,15.30
2018-04-15T16:37:11.915Z,15.20
2018-04-15T16:39:42.546Z,15.10
2018-04-15T16:42:13.358Z,15.00
2018-04-15T16:44:43.987Z,15.10
2018-04-15T16:47:14.780Z,15.10
2018-04-15T16:49:46.616Z,15.20
2018-04-15T16:52:18.378Z,15.20
2018-04-15T16:54:49.801Z,15.10
2018-04-15T16:57:20.430Z,15.10
2018-04-15T16:59:51.040Z,15.00
2018-04-15T17:02:22.289Z,14.90
2018-04-15T17:04:52.924Z,14.90
2018-04-15T17:07:23.594Z,14.70
2018-04-15T17:09:54.978Z,14.60
2018-04-15T17:12:26.752Z,14.60
2018-04-15T17:14:57.367Z,14.60
2018-04-15T17:17:27.991Z,14.50
2018-04-15T17:19:58.948Z,14.50
2018-04-15T17:22:29.767Z,14.50
2018-04-15T17:25:00.436Z,14.40
2018-04-15T17:27:31.649Z,14.30
2018-04-15T17:30:02.329Z,14.30
2018-04-15T17:32:33.004Z,14.20
2018-04-15T17:35:03.648Z,14.20
2018-04-15T17:37:34.307Z,14.10
2018-04-15T17:40:05.300Z,14.10
2018-04-15T17:42:36.091Z,14.10
2018-04-15T17:45:06.714Z,14.00
2018-04-15T17:47:37.922Z,14.00
2018-04-15T17:50:08.536Z,13.90
2018-04-15T17:52:39.280Z,14.00
2018-04-15T17:55:09.927Z,14.00
2018-04-15T17:57:40.838Z,14.00
2018-04-15T18:00:11.497Z,14.00
2018-04-15T18:02:43.106Z,13.90
2018-04-15T18:05:14.520Z,13.90
2018-04-15T18:07:45.336Z,13.90
2018-04-15T18:10:15.960Z,13.90
2018-04-15T18:12:46.938Z,13.80
2018-04-15T18:15:17.886Z,13.70
2018-04-15T18:17:48.684Z,13.70
2018-04-15T18:20:19.319Z,13.70
2018-04-15T18:22:50.254Z,13.70
2018-04-15T18:25:20.889Z,13.70
2018-04-15T18:27:51.656Z,13.80
2018-04-15T18:30:22.294Z,13.80
2018-04-15T18:32:53.923Z,13.70
2018-04-15T18:35:24.565Z,13.70
2018-04-15T18:37:55.368Z,13.60
2018-04-15T18:40:26.019Z,13.60
2018-04-15T18:42:56.953Z,13.60
2018-04-15T18:45:27.897Z,13.60
2018-04-15T18:47:58.658Z,13.60
2018-04-15T18:50:30.221Z,13.60
2018-04-15T18:53:01.668Z,13.60
2018-04-15T18:55:33.078Z,13.60
2018-04-15T18:58:04.010Z,13.60
2018-04-15T19:00:34.638Z,13.60
2018-04-15T19:03:05.594Z,13.60
2018-04-15T19:05:36.272Z,13.60
2018-04-15T19:08:07.081Z,13.50
2018-04-15T19:10:38.761Z,13.50
2018-04-15T19:13:09.398Z,13.50
2018-04-15T19:15:40.011Z,13.50
2018-04-15T19:18:11.395Z,13.50
2018-04-15T19:20:42.087Z,13.50
2018-04-15T19:23:13.820Z,13.50
2018-04-15T19:25:44.457Z,13.50
2018-04-15T19:28:15.409Z,13.50
2018-04-15T19:30:46.821Z,13.40
2018-04-15T19:33:17.513Z,13.50
2018-04-15T19:35:48.445Z,13.50
2018-04-15T19:38:19.853Z,13.50
2018-04-15T19:40:50.504Z,13.50
2018-04-15T19:43:22.112Z,13.50
2018-04-15T19:45:52.809Z,13.50
2018-04-15T19:48:24.003Z,13.50
2018-04-15T19:50:54.751Z,13.40
2018-04-15T19:53:25.691Z,13.40
2018-04-15T19:55:56.636Z,13.40
2018-04-15T19:58:27.690Z,13.40
2018-04-15T20:00:59.101Z,13.40
2018-04-15T20:03:29.867Z,13.40
2018-04-15T20:06:01.298Z,13.40
2018-04-15T20:08:31.943Z,13.30
2018-04-15T20:11:02.575Z,13.30
2018-04-15T20:13:33.558Z,13.10
2018-04-15T20:16:04.260Z,13.00
2018-04-15T20:18:35.356Z,12.80
2018-04-15T20:21:07.378Z,12.70
2018-04-15T20:23:38.294Z,12.50
2018-04-15T20:26:09.680Z,12.30
2018-04-15T20:28:40.451Z,12.30
2018-04-15T20:31:11.381Z,12.30
2018-04-15T20:33:42.055Z,12.10
2018-04-15T20:36:13.541Z,11.90
2018-04-15T20:38:44.185Z,11.90
2018-04-15T20:41:14.984Z,11.80
2018-04-15T20:43:45.661Z,11.70
2018-04-15T20:46:16.692Z,11.50
2018-04-15T20:48:47.637Z,11.40
2018-04-15T20:51:18.293Z,11.20
2018-04-15T20:53:49.312Z,11.20
2018-04-15T20:56:19.991Z,11.10
2018-04-15T20:58:51.694Z,11.00
2018-04-15T21:01:22.599Z,11.00
2018-04-15T21:03:54.244Z,11.00
2018-04-15T21:06:25.310Z,11.00
2018-04-15T21:08:55.964Z,11.10
2018-04-15T21:11:26.621Z,11.10
2018-04-15T21:13:58.314Z,11.00
2018-04-15T21:16:29.226Z,10.90
2018-04-15T21:18:59.978Z,10.90
2018-04-15T21:21:30.618Z,10.90
2018-04-15T21:24:02.401Z,10.80
2018-04-15T21:26:33.110Z,10.70
2018-04-15T21:29:03.934Z,10.80
2018-04-15T21:31:34.840Z,10.70
2018-04-15T21:34:06.255Z,10.70
2018-04-15T21:36:36.926Z,10.60
2018-04-15T21:39:08.300Z,10.60
2018-04-15T21:41:38.977Z,10.60
2018-04-15T21:44:09.942Z,10.60
2018-04-15T21:46:41.643Z,10.50
2018-04-15T21:49:12.259Z,10.50
2018-04-15T21:51:42.927Z,10.40
2018-04-15T21:54:14.881Z,10.30
2018-04-15T21:56:46.494Z,10.30
2018-04-15T21:59:17.476Z,10.30
2018-04-15T22:01:48.108Z,10.30
2018-04-15T22:04:18.806Z,10.30
2018-04-15T22:06:50.566Z,10.30
2018-04-15T22:09:21.258Z,10.30
2018-04-15T22:12:24.069Z,10.20
2018-04-15T22:14:54.850Z,10.20
2018-04-15T22:17:25.558Z,10.20
2018-04-15T22:19:56.543Z,10.20
2018-04-15T22:22:27.182Z,10.20
2018-04-15T22:24:58.604Z,10.20
2018-04-15T22:27:29.338Z,10.20
2018-04-15T22:30:00.281Z,10.10
2018-04-15T22:32:30.905Z,10.10
2018-04-15T22:35:01.984Z,10.10
2018-04-15T22:37:33.019Z,10.10
2018-04-15T22:40:04.488Z,10.10
2018-04-15T22:42:35.128Z,10.00
2018-04-15T22:45:06.073Z,10.10
2018-04-15T22:47:40.808Z,10.10
2018-04-15T22:50:16.088Z,10.10
2018-04-15T22:52:46.742Z,10.10
2018-04-15T22:55:18.282Z,10.10
2018-04-15T22:57:49.972Z,10.10
2018-04-15T23:00:20.954Z,10.00
2018-04-15T23:02:51.695Z,10.10
2018-04-15T23:05:22.917Z,10.20
2018-04-15T23:07:53.643Z,10.20
2018-04-15T23:10:24.446Z,10.20
2018-04-15T23:12:55.517Z,10.20
2018-04-15T23:15:26.474Z,10.10
2018-04-15T23:17:57.322Z,10.10
2018-04-15T23:20:28.520Z,10.10
2018-04-15T23:22:59.219Z,10.20
2018-04-15T23:25:30.235Z,10.10
2018-04-15T23:28:01.243Z,10.10
2018-04-15T23:30:32.036Z,10.10
2018-04-15T23:33:02.757Z,10.00
2018-04-15T23:35:33.861Z,9.90
2018-04-15T23:38:04.623Z,9.90
2018-04-15T23:40:35.630Z,9.90
2018-04-15T23:43:06.368Z,9.90
2018-04-15T23:45:37.248Z,9.90
2018-04-15T23:48:07.958Z,9.80
2018-04-15T23:50:39.261Z,9.80
2018-04-15T23:53:10.811Z,9.70
2018-04-15T23:55:41.661Z,9.70
2018-04-15T23:58:12.814Z,9.70
